createdAt,value
2023-04-03T00:00:11.892Z,102515.03
2023-04-03T00:02:38.693Z,102516.63
2023-04-03T00:05:06.102Z,102517.69
2023-04-03T00:07:33.115Z,102513.91
2023-04-03T00:09:59.891Z,102513.84
2023-04-03T00:12:52.750Z,102520.88
2023-04-03T00:15:19.767Z,102520.50
2023-04-03T00:17:47.006Z,102516.22
2023-04-03T00:20:13.916Z,102520.38
2023-04-03T00:22:41.024Z,102514.34
2023-04-03T00:25:09.186Z,102527.53
2023-04-03T00:27:38.892Z,102535.97
2023-04-03T00:30:07.699Z,102528.41
2023-04-03T00:32:34.971Z,102534.38
2023-04-03T00:35:02.908Z,102533.06
2023-04-03T00:37:29.665Z,102526.16
2023-04-03T00:39:56.796Z,102524.34
2023-04-03T00:42:23.600Z,102533.09
2023-04-03T00:44:50.380Z,102525.88
2023-04-03T00:47:19.071Z,102532.59
2023-04-03T00:49:46.554Z,102525.22
2023-04-03T00:52:16.782Z,102528.22
2023-04-03T00:54:44.832Z,102524.91
2023-04-03T00:57:12.450Z,102525.56
2023-04-03T00:59:45.781Z,102529.38
2023-04-03T01:02:12.796Z,102521.69
2023-04-03T01:04:44.259Z,102518.16
2023-04-03T01:07:18.079Z,102519.03
2023-04-03T01:09:46.359Z,102515.47
2023-04-03T01:12:23.845Z,102527.09
2023-04-03T01:14:54.745Z,102526.25
2023-04-03T01:17:31.622Z,102520.84
2023-04-03T01:20:01.908Z,102526.59
2023-04-03T01:22:32.377Z,102532.84
2023-04-03T01:24:59.424Z,102533.72
2023-04-03T01:27:27.144Z,102537.88
2023-04-03T01:29:54.292Z,102532.94
2023-04-03T01:32:21.241Z,102535.53
2023-04-03T01:34:48.098Z,102534.72
2023-04-03T01:37:14.856Z,102534.09
2023-04-03T01:39:41.817Z,102538.94
2023-04-03T01:42:09.052Z,102546.44
2023-04-03T01:44:39.858Z,102538.25
2023-04-03T01:47:08.256Z,102538.47
2023-04-03T01:49:35.764Z,102539.63
2023-04-03T01:52:02.660Z,102544.81
2023-04-03T01:54:30.293Z,102547.06
2023-04-03T01:56:57.233Z,102541.56
2023-04-03T01:59:24.131Z,102547.88
2023-04-03T02:01:51.852Z,102552.13
2023-04-03T02:04:18.894Z,102544.34
2023-04-03T02:06:46.360Z,102541.22
2023-04-03T02:09:13.412Z,102553.84
2023-04-03T02:11:40.277Z,102553.38
2023-04-03T02:14:07.565Z,102555.66
2023-04-03T02:16:34.533Z,102556.38
2023-04-03T02:19:01.463Z,102554.13
2023-04-03T02:21:30.030Z,102553.75
2023-04-03T02:23:57.367Z,102559.38
2023-04-03T02:26:24.313Z,102559.06
2023-04-03T02:28:51.118Z,102554.03
2023-04-03T02:31:18.732Z,102561.06
2023-04-03T02:33:47.706Z,102557.75
2023-04-03T02:36:15.872Z,102562.66
2023-04-03T02:38:46.636Z,102567.16
2023-04-03T02:41:14.011Z,102561.84
2023-04-03T02:43:41.017Z,102562.91
2023-04-03T02:46:08.361Z,102560.00
2023-04-03T02:48:36.305Z,102562.34
2023-04-03T02:51:03.460Z,102549.09
2023-04-03T02:53:30.309Z,102562.53
2023-04-03T02:55:57.627Z,102565.72
2023-04-03T02:58:24.492Z,102556.38
2023-04-03T03:00:53.443Z,102569.69
2023-04-03T03:03:20.163Z,102575.13
2023-04-03T03:05:46.945Z,102571.59
2023-04-03T03:08:13.856Z,102572.44
2023-04-03T03:10:40.671Z,102561.25
2023-04-03T03:13:07.934Z,102575.13
2023-04-03T03:15:34.860Z,102572.41
2023-04-03T03:18:03.132Z,102575.56
2023-04-03T03:20:30.007Z,102575.19
2023-04-03T03:22:56.818Z,102571.16
2023-04-03T03:25:23.647Z,102574.91
2023-04-03T03:27:50.493Z,102575.69
2023-04-03T03:30:17.255Z,102575.47
2023-04-03T03:32:44.166Z,102571.84
2023-04-03T03:35:10.934Z,102572.03
2023-04-03T03:37:37.934Z,102578.75
2023-04-03T03:40:05.548Z,102578.28
2023-04-03T03:42:32.918Z,102578.97
2023-04-03T03:44:59.832Z,102586.22
2023-04-03T03:47:27.145Z,102585.66
2023-04-03T03:49:54.444Z,102587.94
2023-04-03T03:52:21.392Z,102575.63
2023-04-03T03:54:49.356Z,102589.75
2023-04-03T03:57:17.323Z,102582.00
2023-04-03T03:59:45.309Z,102588.59
2023-04-03T04:02:12.400Z,102579.78
2023-04-03T04:04:39.206Z,102585.25
2023-04-03T04:07:06.370Z,102587.16
2023-04-03T04:09:34.488Z,102599.56
2023-04-03T04:12:01.333Z,102591.19
2023-04-03T04:14:29.775Z,102592.53
2023-04-03T04:16:57.516Z,102604.59
2023-04-03T04:19:26.937Z,102598.97
2023-04-03T04:21:54.631Z,102603.31
2023-04-03T04:24:21.642Z,102608.53
2023-04-03T04:26:50.587Z,102603.31
2023-04-03T04:29:18.431Z,102597.25
2023-04-03T04:31:49.055Z,102595.88
2023-04-03T04:34:17.317Z,102605.53
2023-04-03T04:36:44.421Z,102608.41
2023-04-03T04:39:11.734Z,102602.41
2023-04-03T04:41:38.802Z,102608.59
2023-04-03T04:44:06.631Z,102611.09
2023-04-03T04:46:33.951Z,102607.22
2023-04-03T04:49:00.842Z,102606.47
2023-04-03T04:51:35.107Z,102601.66
2023-04-03T04:54:09.354Z,102604.34
2023-04-03T04:56:37.234Z,102608.25
2023-04-03T04:59:04.558Z,102615.13
2023-04-03T05:01:31.893Z,102606.28
2023-04-03T05:04:13.719Z,102609.38
2023-04-03T05:06:40.975Z,102612.56
2023-04-03T05:09:12.502Z,102608.25
2023-04-03T05:11:44.047Z,102613.56
2023-04-03T05:14:13.344Z,102613.81
2023-04-03T05:16:40.580Z,102614.88
2023-04-03T05:19:07.911Z,102623.59
2023-04-03T05:21:35.440Z,102611.28
2023-04-03T05:24:10.069Z,102609.97
2023-04-03T05:26:40.000Z,102613.25
2023-04-03T05:29:08.915Z,102616.25
2023-04-03T05:31:36.095Z,102603.13
2023-04-03T05:34:03.892Z,102606.63
2023-04-03T05:36:33.764Z,102603.44
2023-04-03T05:39:05.359Z,102616.78
2023-04-03T05:41:35.101Z,102617.78
2023-04-03T05:44:01.962Z,102619.56
2023-04-03T05:46:28.968Z,102621.69
2023-04-03T05:48:57.899Z,102620.06
2023-04-03T05:51:34.924Z,102624.53
2023-04-03T05:54:18.908Z,102621.03
2023-04-03T05:56:46.707Z,102625.34
2023-04-03T05:59:14.017Z,102621.41
2023-04-03T06:01:42.313Z,102626.06
2023-04-03T06:04:10.276Z,102619.31
2023-04-03T06:07:08.565Z,102619.31
2023-04-03T06:09:35.783Z,102616.25
2023-04-03T06:12:03.138Z,102621.25
2023-04-03T06:14:30.865Z,102622.03
2023-04-03T06:17:01.189Z,102626.03
2023-04-03T06:19:28.509Z,102619.53
2023-04-03T06:21:59.467Z,102617.59
2023-04-03T06:24:30.428Z,102622.44
2023-04-03T06:26:57.631Z,102626.00
2023-04-03T06:29:24.964Z,102625.50
2023-04-03T06:31:52.252Z,102627.13
2023-04-03T06:34:19.471Z,102619.53
2023-04-03T06:36:46.925Z,102626.13
2023-04-03T06:39:21.453Z,102626.50
2023-04-03T06:41:48.623Z,102628.16
2023-04-03T06:44:17.091Z,102630.31
2023-04-03T06:46:44.961Z,102635.09
2023-04-03T06:49:11.882Z,102636.97
2023-04-03T06:51:38.942Z,102638.63
2023-04-03T06:54:07.214Z,102639.19
2023-04-03T06:56:34.135Z,102645.25
2023-04-03T06:59:02.049Z,102642.44
2023-04-03T07:01:29.858Z,102639.66
2023-04-03T07:03:57.516Z,102641.13
2023-04-03T07:06:24.489Z,102640.25
2023-04-03T07:08:51.449Z,102642.50
2023-04-03T07:11:18.428Z,102636.25
2023-04-03T07:13:45.199Z,102643.97
2023-04-03T07:16:13.649Z,102643.50
2023-04-03T07:18:40.476Z,102640.53
2023-04-03T07:21:07.625Z,102641.69
2023-04-03T07:23:34.554Z,102647.06
2023-04-03T07:26:01.275Z,102649.00
2023-04-03T07:28:28.073Z,102655.28
2023-04-03T07:31:01.580Z,102654.84
2023-04-03T07:33:28.481Z,102660.22
2023-04-03T07:35:55.545Z,102664.09
2023-04-03T07:38:22.708Z,102658.09
2023-04-03T07:40:50.678Z,102663.69
2023-04-03T07:43:18.884Z,102662.25
2023-04-03T07:45:46.163Z,102659.31
2023-04-03T07:48:14.203Z,102665.00
2023-04-03T07:50:44.552Z,102657.75
2023-04-03T07:53:11.622Z,102661.25
2023-04-03T07:55:43.990Z,102665.72
2023-04-03T07:58:17.442Z,102672.25
2023-04-03T08:00:46.991Z,102667.34
2023-04-03T08:03:17.846Z,102671.47
2023-04-03T08:05:52.324Z,102685.78
2023-04-03T08:08:22.340Z,102673.53
2023-04-03T08:10:51.317Z,102692.25
2023-04-03T08:13:18.783Z,102673.31
2023-04-03T08:15:46.214Z,102676.16
2023-04-03T08:18:13.336Z,102681.63
2023-04-03T08:20:44.264Z,102671.97
2023-04-03T08:23:12.174Z,102678.00
2023-04-03T08:25:40.960Z,102681.38
2023-04-03T08:28:08.612Z,102679.03
2023-04-03T08:30:35.809Z,102675.69
2023-04-03T08:33:03.855Z,102690.44
2023-04-03T08:35:31.166Z,102682.06
2023-04-03T08:37:58.024Z,102678.44
2023-04-03T08:40:34.429Z,102676.53
2023-04-03T08:43:28.716Z,102678.00
2023-04-03T08:45:57.025Z,102677.09
2023-04-03T08:48:23.904Z,102676.25
2023-04-03T08:50:54.288Z,102673.31
2023-04-03T08:53:29.545Z,102679.38
2023-04-03T08:55:57.003Z,102683.66
2023-04-03T08:58:26.977Z,102671.47
2023-04-03T09:01:39.211Z,102684.13
2023-04-03T09:04:16.019Z,102676.44
2023-04-03T09:06:51.525Z,102681.84
2023-04-03T09:09:33.678Z,102690.00
2023-04-03T09:12:27.965Z,102677.03
2023-04-03T09:15:37.869Z,102676.75
2023-04-03T09:18:29.809Z,102664.22
2023-04-03T09:21:15.143Z,102673.09
2023-04-03T09:23:51.994Z,102669.75
2023-04-03T09:26:23.802Z,102664.44
2023-04-03T09:28:51.602Z,102662.53
2023-04-03T09:31:28.682Z,102663.56
2023-04-03T09:34:03.821Z,102671.81
2023-04-03T09:36:56.130Z,102658.44
2023-04-03T09:39:26.140Z,102670.66
2023-04-03T09:42:12.986Z,102659.28
2023-04-03T09:44:45.228Z,102659.50
2023-04-03T09:47:34.696Z,102655.97
2023-04-03T09:50:18.216Z,102663.72
2023-04-03T09:52:47.798Z,102661.41
2023-04-03T09:55:28.350Z,102652.88
2023-04-03T09:57:56.697Z,102656.09
2023-04-03T10:00:29.663Z,102642.44
2023-04-03T10:02:58.229Z,102642.41
2023-04-03T10:05:41.101Z,102634.06
2023-04-03T10:08:14.042Z,102641.97
2023-04-03T10:10:42.874Z,102635.47
2023-04-03T10:13:21.374Z,102637.88
2023-04-03T10:15:56.857Z,102630.03
2023-04-03T10:18:51.601Z,102624.63
2023-04-03T10:21:44.041Z,102626.19
2023-04-03T10:24:22.841Z,102625.47
2023-04-03T10:26:59.019Z,102626.72
2023-04-03T10:29:51.040Z,102622.53
2023-04-03T10:32:29.272Z,102618.59
2023-04-03T10:35:32.562Z,102625.72
2023-04-03T10:38:09.391Z,102611.38
2023-04-03T10:40:48.577Z,102611.84
2023-04-03T10:43:34.251Z,102620.03
2023-04-03T10:46:24.865Z,102613.38
2023-04-03T10:49:16.099Z,102602.16
2023-04-03T10:51:58.079Z,102606.50
2023-04-03T10:54:40.532Z,102612.31
2023-04-03T10:57:13.490Z,102597.47
2023-04-03T10:59:51.383Z,102601.06
2023-04-03T11:02:25.290Z,102602.44
2023-04-03T11:05:00.805Z,102595.13
2023-04-03T11:07:32.898Z,102600.16
2023-04-03T11:10:36.916Z,102592.09
2023-04-03T11:13:13.572Z,102576.31
2023-04-03T11:15:41.506Z,102591.53
2023-04-03T11:18:14.920Z,102578.25
2023-04-03T11:21:03.432Z,102569.59
2023-04-03T11:23:45.775Z,102569.78
2023-04-03T11:26:49.683Z,102567.97
2023-04-03T11:29:56.179Z,102573.41
2023-04-03T11:32:56.853Z,102570.69
2023-04-03T11:35:24.601Z,102565.03
2023-04-03T11:37:55.019Z,102556.03
2023-04-03T11:40:32.014Z,102550.84
2023-04-03T11:43:28.397Z,102562.22
2023-04-03T14:09:12.017Z,102442.47
2023-04-03T14:11:39.020Z,102431.81
2023-04-03T14:14:32.878Z,102423.66
2023-04-03T14:17:02.510Z,102424.31
2023-04-03T14:19:36.567Z,102434.19
2023-04-03T14:22:17.445Z,102422.00
2023-04-03T14:24:45.518Z,102415.94
2023-04-03T14:27:25.399Z,102424.25
2023-04-03T14:29:54.630Z,102426.94
2023-04-03T14:32:23.291Z,102407.19
2023-04-03T14:34:51.244Z,102413.38
2023-04-03T14:37:24.107Z,102422.09
2023-04-03T14:39:52.581Z,102420.38
2023-04-03T14:42:24.002Z,102406.66
2023-04-03T14:44:51.093Z,102419.34
2023-04-03T14:47:30.498Z,102406.47
2023-04-03T14:50:01.224Z,102393.09
2023-04-03T14:52:34.047Z,102402.59
2023-04-03T14:55:02.115Z,102405.72
2023-04-03T14:57:30.340Z,102398.63
2023-04-03T14:59:57.341Z,102401.41
2023-04-03T15:02:38.458Z,102394.97
2023-04-03T15:05:08.614Z,102407.13
2023-04-03T15:07:48.124Z,102400.31
2023-04-03T15:10:18.866Z,102413.09
2023-04-03T15:12:46.144Z,102389.31
2023-04-03T15:15:16.564Z,102383.09
2023-04-03T15:17:56.288Z,102397.66
2023-04-03T15:20:28.795Z,102398.50
2023-04-03T15:22:57.538Z,102402.00
2023-04-03T15:25:24.881Z,102403.41
2023-04-03T15:27:51.932Z,102395.53
2023-04-03T15:30:20.457Z,102395.75
2023-04-03T15:32:47.452Z,102411.19
2023-04-03T15:35:14.543Z,102406.66
2023-04-03T15:37:42.857Z,102398.84
2023-04-03T15:40:10.100Z,102396.13
2023-04-03T15:42:36.982Z,102396.22
2023-04-03T15:45:04.228Z,102386.25
2023-04-03T15:47:31.295Z,102389.91
2023-04-03T15:49:58.612Z,102384.66
2023-04-03T15:52:27.329Z,102382.16
2023-04-03T15:54:54.070Z,102392.91
2023-04-03T15:57:21.530Z,102388.28
2023-04-03T15:59:48.588Z,102381.91
2023-04-03T16:02:18.790Z,102383.75
2023-04-03T16:04:45.960Z,102376.38
2023-04-03T16:07:12.875Z,102392.28
2023-04-03T16:09:45.606Z,102388.00
2023-04-03T16:12:14.906Z,102383.16
2023-04-03T16:14:41.716Z,102372.59
2023-04-03T16:17:08.516Z,102377.66
2023-04-03T16:19:36.508Z,102370.97
2023-04-03T16:22:03.359Z,102378.50
2023-04-03T16:24:30.442Z,102370.31
2023-04-03T16:26:57.239Z,102378.81
2023-04-03T16:29:24.109Z,102376.56
2023-04-03T16:31:51.058Z,102382.22
2023-04-03T16:34:17.868Z,102374.81
2023-04-03T16:36:44.793Z,102381.75
2023-04-03T16:39:11.699Z,102385.03
2023-04-03T16:41:39.048Z,102394.66
2023-04-03T16:44:08.207Z,102394.09
2023-04-03T16:46:35.527Z,102387.78
2023-04-03T16:49:02.545Z,102393.53
2023-04-03T16:51:29.592Z,102400.75
2023-04-03T16:53:56.389Z,102398.59
2023-04-03T16:56:23.264Z,102399.53
2023-04-03T16:58:50.020Z,102389.03
2023-04-03T17:01:18.905Z,102398.66
2023-04-03T17:03:46.458Z,102402.00
2023-04-03T17:06:17.545Z,102411.88
2023-04-03T17:08:46.946Z,102408.72
2023-04-03T17:11:30.475Z,102409.81
2023-04-03T17:13:57.740Z,102414.63
2023-04-03T17:16:25.581Z,102411.38
2023-04-03T17:18:53.523Z,102412.56
2023-04-03T17:21:23.723Z,102411.88
2023-04-03T17:23:58.664Z,102405.66
2023-04-03T17:26:26.919Z,102419.69
2023-04-03T17:28:54.097Z,102412.75
2023-04-03T17:31:21.478Z,102425.16
2023-04-03T17:33:48.267Z,102417.00
2023-04-03T17:36:16.138Z,102416.38
2023-04-03T17:38:42.918Z,102407.97
2023-04-03T17:41:10.573Z,102415.56
2023-04-03T17:43:37.397Z,102420.94
2023-04-03T17:46:06.985Z,102422.75
2023-04-03T17:48:35.703Z,102415.16
2023-04-03T17:51:11.177Z,102426.09
2023-04-03T17:53:38.546Z,102430.59
2023-04-03T17:56:14.297Z,102416.78
2023-04-03T17:58:42.388Z,102421.13
2023-04-03T18:01:14.400Z,102423.00
2023-04-03T18:03:41.961Z,102428.47
2023-04-03T18:06:11.987Z,102426.25
2023-04-03T18:08:41.695Z,102435.78
2023-04-03T18:11:08.995Z,102440.09
2023-04-03T18:13:39.100Z,102438.75
2023-04-03T18:16:09.771Z,102446.63
2023-04-03T18:18:36.772Z,102432.28
2023-04-03T18:21:04.563Z,102433.56
2023-04-03T18:23:32.923Z,102430.31
2023-04-03T18:26:01.213Z,102431.69
2023-04-03T18:28:29.052Z,102437.09
2023-04-03T18:30:55.897Z,102435.78
2023-04-03T18:33:22.728Z,102433.34
2023-04-03T18:35:50.419Z,102437.66
2023-04-03T18:38:17.450Z,102443.09
2023-04-03T18:40:44.921Z,102438.75
2023-04-03T18:43:12.453Z,102432.28
2023-04-03T18:45:39.488Z,102431.72
2023-04-03T18:48:06.515Z,102436.06
2023-04-03T18:50:33.652Z,102422.78
2023-04-03T18:53:00.641Z,102433.88
2023-04-03T18:55:27.388Z,102439.56
2023-04-03T18:57:55.036Z,102430.31
2023-04-03T19:00:22.077Z,102435.47
2023-04-03T19:02:49.385Z,102437.41
2023-04-03T19:05:17.168Z,102436.03
2023-04-03T19:07:44.760Z,102438.75
2023-04-03T19:10:17.334Z,102431.09
2023-04-03T19:12:45.417Z,102439.25
2023-04-03T19:15:16.482Z,102439.31
2023-04-03T19:17:43.507Z,102444.72
2023-04-03T19:20:11.921Z,102445.19
2023-04-03T19:22:39.392Z,102446.84
2023-04-03T19:25:07.113Z,102451.47
2023-04-03T19:27:34.736Z,102460.91
2023-04-03T19:30:01.531Z,102452.75
2023-04-03T19:32:28.490Z,102450.88
2023-04-03T19:34:58.439Z,102450.22
2023-04-03T19:37:26.965Z,102449.72
2023-04-03T19:39:53.961Z,102454.94
2023-04-03T19:42:21.186Z,102456.84
2023-04-03T19:44:48.838Z,102457.59
2023-04-03T19:47:17.896Z,102456.88
2023-04-03T19:49:44.803Z,102454.91
2023-04-03T19:52:11.604Z,102455.78
2023-04-03T19:54:38.451Z,102458.22
2023-04-03T19:57:05.552Z,102462.59
2023-04-03T19:59:32.497Z,102466.31
2023-04-03T20:01:59.897Z,102471.47
2023-04-03T20:04:26.894Z,102470.31
2023-04-03T20:06:54.539Z,102476.31
2023-04-03T20:09:22.309Z,102472.41
2023-04-03T20:11:49.818Z,102473.28
2023-04-03T20:14:18.430Z,102470.88
2023-04-03T20:16:47.337Z,102482.75
2023-04-03T20:19:14.374Z,102479.66
2023-04-03T20:21:41.397Z,102484.09
2023-04-03T20:24:10.665Z,102481.50
2023-04-03T20:26:43.864Z,102483.22
2023-04-03T20:29:10.611Z,102488.41
2023-04-03T20:31:38.884Z,102488.75
2023-04-03T20:34:06.267Z,102488.28
2023-04-03T20:36:34.253Z,102483.78
2023-04-03T20:39:01.305Z,102487.03
2023-04-03T20:41:28.116Z,102481.63
2023-04-03T20:43:54.809Z,102485.78
2023-04-03T20:46:25.505Z,102485.88
2023-04-03T20:48:53.655Z,102487.28
2023-04-03T20:51:21.330Z,102481.44
2023-04-03T20:53:48.636Z,102485.03
2023-04-03T20:56:16.567Z,102478.00
2023-04-03T20:58:43.938Z,102482.81
2023-04-03T21:01:20.026Z,102484.75
2023-04-03T21:03:48.851Z,102484.72
2023-04-03T21:06:53.148Z,102481.84
2023-04-03T21:09:57.389Z,102493.06
2023-04-03T21:13:01.981Z,102488.91
2023-04-03T21:15:51.982Z,102490.06
2023-04-03T21:18:37.713Z,102489.28
2023-04-03T21:21:05.121Z,102481.03
2023-04-03T21:23:32.843Z,102477.47
2023-04-03T21:26:00.066Z,102487.97
2023-04-03T21:28:27.346Z,102476.88
2023-04-03T21:30:57.327Z,102479.72
2023-04-03T21:33:24.052Z,102476.97
2023-04-03T21:35:57.678Z,102483.56
2023-04-03T21:38:26.367Z,102481.88
2023-04-03T21:40:56.825Z,102485.38
2023-04-03T21:43:24.344Z,102471.38
2023-04-03T21:45:55.304Z,102481.00
2023-04-03T21:48:23.336Z,102494.06
2023-04-03T21:50:53.826Z,102480.31
2023-04-03T21:53:22.587Z,102492.88
2023-04-03T21:55:54.210Z,102490.34
2023-04-03T21:58:22.424Z,102490.63
2023-04-03T22:00:49.231Z,102497.56
2023-04-03T22:03:20.936Z,102499.28
2023-04-03T22:05:48.314Z,102484.97
2023-04-03T22:08:18.090Z,102482.00
2023-04-03T22:10:45.118Z,102485.34
2023-04-03T22:13:11.968Z,102503.34
2023-04-03T22:15:47.342Z,102500.53
2023-04-03T22:18:14.207Z,102496.19
2023-04-03T22:20:43.241Z,102498.28
2023-04-03T22:23:10.479Z,102490.28
2023-04-03T22:25:37.301Z,102494.69
2023-04-03T22:28:04.193Z,102494.84
2023-04-03T22:30:30.982Z,102476.50
2023-04-03T22:32:57.832Z,102484.31
2023-04-03T22:35:25.103Z,102469.34
2023-04-03T22:37:52.879Z,102467.25
2023-04-03T22:40:19.880Z,102456.94
2023-04-03T22:42:48.202Z,102458.66
2023-04-03T22:45:15.891Z,102451.03
2023-04-03T22:47:43.354Z,102450.88
2023-04-03T22:50:11.236Z,102439.59
2023-04-03T22:52:37.992Z,102449.94
2023-04-03T22:55:16.508Z,102457.81
2023-04-03T22:57:49.354Z,102458.69
2023-04-03T23:00:16.668Z,102455.28
2023-04-03T23:02:44.164Z,102459.38
2023-04-03T23:05:10.942Z,102460.53
2023-04-03T23:07:37.833Z,102461.41
2023-04-03T23:10:05.168Z,102460.16
2023-04-03T23:12:38.133Z,102467.13
2023-04-03T23:15:05.726Z,102466.13
2023-04-03T23:17:36.011Z,102457.25
2023-04-03T23:20:03.021Z,102470.09
2023-04-03T23:22:29.754Z,102464.19
2023-04-03T23:24:56.749Z,102475.91
2023-04-03T23:27:24.267Z,102480.22
2023-04-03T23:29:51.313Z,102477.56
2023-04-03T23:32:18.014Z,102477.03
2023-04-03T23:34:44.804Z,102479.47
2023-04-03T23:37:12.691Z,102480.47
2023-04-03T23:39:39.941Z,102476.66
2023-04-03T23:42:09.286Z,102468.13
2023-04-03T23:44:36.354Z,102468.31
2023-04-03T23:47:03.384Z,102471.81
2023-04-03T23:49:30.161Z,102469.47
2023-04-03T23:51:57.673Z,102471.53
2023-04-03T23:54:24.393Z,102458.63
2023-04-03T23:56:51.366Z,102461.63
2023-04-03T23:59:18.439Z,102446.72
